Time;durP1;ratioP1;P1;durP2;ratioP2;P2;SDS_P1;SDS_P2;PMS_P1;PMS_P2;Temp;Humidity;BMP_temperature;BMP_pressure;BME280_temperature;BME280_humidity;BME280_pressure;Samples;Min_cycle;Max_cycle;Signal;HPM_P1;HPM_P2
2023/10/05 00:04:29;;;;;;;18.60;4.15;;;;;;;-144.73;100.00;54588.31;5115164;28;20030;-74
2023/10/05 00:06:54;;;;;;;18.45;4.90;;;;;;;-144.73;100.00;54584.22;5101294;28;20028;-74
2023/10/05 00:09:22;;;;;;;15.05;4.15;;;;;;;-144.73;100.00;54571.91;5096488;28;20100;-75
2023/10/05 00:11:47;;;;;;;16.40;3.75;;;;;;;-144.73;100.00;54524.69;5097551;28;20065;-74
2023/10/05 00:14:13;;;;;;;22.67;5.75;;;;;;;-144.73;100.00;54555.47;5089482;28;20119;-74
2023/10/05 00:16:43;;;;;;;22.98;5.18;;;;;;;-144.73;100.00;54555.47;5101713;28;20035;-74
2023/10/05 00:19:13;;;;;;;19.70;3.83;;;;;;;-144.73;100.00;54551.38;5097577;28;20124;-74
2023/10/05 00:21:48;;;;;;;26.73;4.13;;;;;;;-144.73;100.00;54563.69;5096848;28;20023;-74
2023/10/05 00:24:15;;;;;;;19.92;4.07;;;;;;;-144.73;100.00;54555.47;5096651;28;20035;-75
2023/10/05 00:26:43;;;;;;;28.48;4.03;;;;;;;-144.73;100.00;54543.16;5099647;28;20031;-74
2023/10/05 00:29:18;;;;;;;28.42;3.97;;;;;;;-144.73;100.00;54567.81;5100691;28;20032;-75
2023/10/05 00:31:47;;;;;;;25.60;3.90;;;;;;;-144.73;100.00;54539.06;5096512;28;20045;-74
2023/10/05 00:34:27;;;;;;;17.77;3.80;;;;;;;-144.73;100.00;54563.69;5113339;28;20040;-74
2023/10/05 00:36:58;;;;;;;31.23;5.95;;;;;;;-144.73;100.00;54555.47;5100279;28;20062;-75
2023/10/05 00:39:25;;;;;;;17.13;4.65;;;;;;;-144.73;100.00;54576.00;5109640;28;20115;-73
2023/10/05 00:44:30;;;;;;;17.02;3.72;;;;;;;-144.73;100.00;54551.38;5113247;28;20042;-74
2023/10/05 00:47:00;;;;;;;21.25;4.80;;;;;;;-144.73;100.00;54569.84;5114076;28;20026;-75
2023/10/05 00:49:37;;;;;;;16.67;4.10;;;;;;;-144.73;100.00;54555.47;5112359;28;20115;-75
2023/10/05 00:52:15;;;;;;;17.90;4.15;;;;;;;-144.73;100.00;54547.28;5096394;28;20019;-76
2023/10/05 00:54:52;;;;;;;25.33;4.35;;;;;;;-144.73;100.00;54559.59;5093391;28;20047;-75
2023/10/05 00:57:23;;;;;;;19.25;4.05;;;;;;;-144.73;100.00;54547.28;5096310;28;20027;-76
2023/10/05 01:02:31;;;;;;;18.42;4.05;;;;;;;-144.73;100.00;54592.44;5114557;28;20031;-75
2023/10/05 01:05:14;;;;;;;29.30;4.57;;;;;;;-144.73;100.00;54539.06;5113993;28;20081;-75
2023/10/05 01:07:43;;;;;;;21.75;5.10;;;;;;;-144.73;100.00;54584.22;5095020;28;20062;-76
2023/10/05 01:12:39;;;;;;;22.13;4.35;;;;;;;-144.73;100.00;54539.06;5111425;28;20081;-75
2023/10/05 01:15:15;;;;;;;19.73;4.72;;;;;;;-144.73;100.00;54518.53;5093847;28;20096;-74
2023/10/05 01:17:41;;;;;;;23.45;4.20;;;;;;;-144.73;100.00;54543.16;5095093;28;20458;-74
2023/10/05 01:22:44;;;;;;;14.68;4.32;;;;;;;-144.73;100.00;54547.28;5113353;28;20089;-74
2023/10/05 01:25:13;;;;;;;19.05;3.92;;;;;;;-144.73;100.00;54526.75;5100544;28;20016;-74
2023/10/05 01:27:40;;;;;;;17.58;4.53;;;;;;;-144.73;100.00;54571.91;5095325;28;20019;-75
2023/10/05 01:30:15;;;;;;;28.25;4.57;;;;;;;-144.73;100.00;54565.75;5113719;28;20012;-74
2023/10/05 01:32:41;;;;;;;19.52;4.07;;;;;;;-144.73;100.00;54541.13;5095248;28;20027;-72
2023/10/05 01:35:13;;;;;;;22.60;4.50;;;;;;;-144.73;100.00;54569.84;5095551;28;20019;-72
2023/10/05 01:37:39;;;;;;;;;;;;;;;-144.73;100.00;54563.69;5093015;28;20035;-76
2023/10/05 01:42:51;;;;;;;19.20;3.92;;;;;;;-144.73;100.00;54563.69;5114984;28;20031;-76
2023/10/05 01:45:22;;;;;;;18.42;3.95;;;;;;;-144.73;100.00;54576.00;5104405;28;20055;-75
2023/10/05 01:47:49;;;;;;;17.90;5.38;;;;;;;-144.73;100.00;54526.75;5094725;28;20020;-76
2023/10/05 01:50:26;;;;;;;19.30;4.30;;;;;;;-144.73;100.00;54555.47;5097016;28;20015;-76
2023/10/05 01:53:35;;;;;;;22.08;4.90;;;;;;;-144.73;100.00;54555.47;5096097;28;20570;-75
2023/10/05 01:55:45;;;;;;;16.00;5.13;;;;;;;-144.73;100.00;54596.53;5097454;28;20079;-75
2023/10/05 01:58:23;;;;;;;19.45;4.18;;;;;;;-144.73;100.00;54539.06;5096509;28;20040;-75
2023/10/05 02:00:49;;;;;;;26.00;5.75;;;;;;;-144.73;100.00;54489.81;5113568;28;20047;-75
2023/10/05 02:03:17;;;;;;;18.88;3.70;;;;;;;-144.73;100.00;54557.53;5112463;28;20102;-75
2023/10/05 02:05:44;;;;;;;25.58;4.95;;;;;;;-144.73;100.00;54563.69;5115352;28;20027;-76
2023/10/05 02:08:09;;;;;;;18.30;3.40;;;;;;;-144.73;100.00;54580.13;5096955;28;20062;-75
2023/10/05 02:10:39;;;;;;;21.52;4.63;;;;;;;-144.73;100.00;54539.06;5097453;28;20436;-75
2023/10/05 02:13:11;;;;;;;17.27;3.92;;;;;;;-144.73;100.00;54588.31;5096448;28;20046;-75
2023/10/05 02:15:41;;;;;;;21.52;4.47;;;;;;;-144.73;100.00;54547.28;5114733;28;20028;-75
2023/10/05 02:18:21;;;;;;;18.50;4.43;;;;;;;-144.73;100.00;54539.06;5095685;28;20541;-75
2023/10/05 02:20:51;;;;;;;24.00;4.53;;;;;;;-144.73;100.00;54563.69;5100399;28;20043;-75
2023/10/05 02:23:25;;;;;;;14.40;4.82;;;;;;;-144.73;100.00;54567.81;5098711;28;20579;-75
2023/10/05 02:26:04;;;;;;;18.70;4.53;;;;;;;-144.73;100.00;54559.59;5112781;28;20030;-75
2023/10/05 02:28:33;;;;;;;16.33;4.05;;;;;;;-144.73;100.00;54563.69;5097851;28;20043;-75
2023/10/05 02:31:00;;;;;;;13.88;3.63;;;;;;;-144.73;100.00;54557.53;5095785;28;20058;-75
2023/10/05 02:33:31;;;;;;;18.42;3.65;;;;;;;-144.73;100.00;54547.28;5095448;28;20061;-75
2023/10/05 02:36:10;;;;;;;;;;;;;;;-144.73;100.00;54563.69;5094303;28;20019;-75
2023/10/05 02:38:48;;;;;;;21.92;4.30;;;;;;;-144.73;100.00;54555.47;5095799;28;19911;-75
2023/10/05 02:41:16;;;;;;;21.38;4.05;;;;;;;-144.73;100.00;54522.63;5095120;28;20034;-76
2023/10/05 02:43:51;;;;;;;20.95;4.75;;;;;;;-144.73;100.00;54559.59;5095056;28;20080;-74
2023/10/05 02:46:17;;;;;;;23.75;3.83;;;;;;;-144.73;100.00;54576.00;5095973;28;20073;-75
2023/10/05 02:48:43;;;;;;;17.15;3.67;;;;;;;-144.73;100.00;54510.31;5092649;28;20035;-75
2023/10/05 02:51:11;;;;;;;21.70;3.47;;;;;;;-144.73;100.00;54584.22;5094512;28;20024;-75
2023/10/05 02:53:47;;;;;;;26.25;4.20;;;;;;;-144.73;100.00;54559.59;5090769;28;20032;-75
2023/10/05 02:56:22;;;;;;;23.15;4.88;;;;;;;-144.73;100.00;54549.31;5110616;28;20059;-76
2023/10/05 02:58:52;;;;;;;24.85;4.70;;;;;;;-144.73;100.00;54504.16;5091625;28;20504;-76
2023/10/05 03:01:18;;;;;;;14.82;3.97;;;;;;;-144.73;100.00;54608.84;5108116;28;20019;-76
2023/10/05 03:03:43;;;;;;;22.38;3.67;;;;;;;-144.73;100.00;54555.47;5110714;28;20042;-76
2023/10/05 03:06:10;;;;;;;30.27;4.53;;;;;;;-144.73;100.00;54551.38;5112448;28;20027;-76
2023/10/05 03:08:36;;;;;;;22.58;4.72;;;;;;;-144.73;100.00;54567.81;5112911;28;20036;-74
2023/10/05 03:11:04;;;;;;;16.70;3.60;;;;;;;-144.73;100.00;54563.69;5094341;28;20107;-76
2023/10/05 03:13:30;;;;;;;25.08;4.22;;;;;;;-144.73;100.00;54545.22;5111401;28;20047;-76
2023/10/05 03:15:56;;;;;;;19.73;3.63;;;;;;;-144.73;100.00;54528.81;5094972;28;20391;-75
2023/10/05 03:18:24;;;;;;;22.80;4.28;;;;;;;-144.73;100.00;54559.59;5093852;28;20031;-75
2023/10/05 03:20:50;;;;;;;25.52;4.35;;;;;;;-144.73;100.00;54565.75;5094522;28;20031;-75
2023/10/05 03:23:15;;;;;;;21.20;3.88;;;;;;;-144.73;100.00;54567.81;5094122;28;20032;-75
2023/10/05 03:25:41;;;;;;;17.63;4.47;;;;;;;-144.73;100.00;54555.47;5094077;28;20028;-75
2023/10/05 03:28:06;;;;;;;16.85;4.15;;;;;;;-144.73;100.00;54561.63;5094299;28;20050;-76
2023/10/05 03:30:35;;;;;;;20.63;4.20;;;;;;;-144.73;100.00;54547.28;5094921;28;20024;-75
2023/10/05 03:33:04;;;;;;;20.40;3.67;;;;;;;-144.73;100.00;54557.53;5109892;28;20034;-75
2023/10/05 03:35:32;;;;;;;21.17;5.28;;;;;;;-144.73;100.00;54604.75;5095653;28;20051;-74
2023/10/05 03:38:00;;;;;;;17.25;4.35;;;;;;;-144.73;100.00;54584.22;5111388;28;20036;-74
2023/10/05 03:40:30;;;;;;;23.20;3.85;;;;;;;-144.73;100.00;54559.59;5093537;28;20027;-74
2023/10/05 03:42:59;;;;;;;21.67;4.10;;;;;;;-144.73;100.00;54569.84;5095596;28;20055;-75
2023/10/05 03:45:24;;;;;;;20.63;4.53;;;;;;;-144.73;100.00;54573.97;5095479;28;20038;-74
2023/10/05 03:47:50;;;;;;;29.45;4.95;;;;;;;-144.73;100.00;54543.16;5093739;28;20015;-75
2023/10/05 03:50:21;;;;;;;17.13;3.80;;;;;;;-144.73;100.00;54563.69;5095771;28;20066;-75
2023/10/05 03:52:47;;;;;;;19.52;4.03;;;;;;;-144.73;100.00;54559.59;5109412;28;20024;-75
2023/10/05 03:55:13;;;;;;;15.68;4.03;;;;;;;-144.73;100.00;54561.63;5098930;28;20024;-75
2023/10/05 03:57:41;;;;;;;19.55;4.45;;;;;;;-144.73;100.00;54580.13;5111374;28;20019;-75
2023/10/05 04:00:23;;;;;;;20.02;4.18;;;;;;;-144.73;100.00;54563.69;5102535;28;20027;-75
2023/10/05 04:02:50;;;;;;;14.23;3.83;;;;;;;-144.73;100.00;54565.75;5092437;28;20028;-74
2023/10/05 04:05:21;;;;;;;21.67;5.47;;;;;;;-144.73;100.00;54555.47;5092705;28;20024;-75
2023/10/05 04:07:48;;;;;;;22.98;4.78;;;;;;;-144.73;100.00;54567.81;5092602;28;20019;-75
2023/10/05 04:10:15;;;;;;;25.42;4.50;;;;;;;-144.73;100.00;54580.13;5094791;28;20032;-75
2023/10/05 04:12:41;;;;;;;20.40;3.90;;;;;;;-144.73;100.00;54510.31;5100585;28;20027;-75
2023/10/05 04:15:11;;;;;;;20.15;4.03;;;;;;;-144.73;100.00;54571.91;5113035;28;20043;-74
2023/10/05 04:17:38;;;;;;;25.80;5.15;;;;;;;-144.73;100.00;54563.69;5094033;28;20094;-74
2023/10/05 04:20:17;;;;;;;24.42;4.70;;;;;;;-144.73;100.00;54559.59;5113015;28;20058;-74
2023/10/05 04:22:42;;;;;;;27.98;5.22;;;;;;;-144.73;100.00;54557.53;5100541;28;20023;-75
2023/10/05 04:25:08;;;;;;;20.35;4.55;;;;;;;-144.73;100.00;54567.81;5100692;28;20020;-75
2023/10/05 04:27:34;;;;;;;23.73;4.60;;;;;;;-144.73;100.00;54547.28;5094104;28;20386;-75
2023/10/05 04:29:59;;;;;;;18.08;4.25;;;;;;;-144.73;100.00;54543.16;5095050;28;20080;-76
2023/10/05 04:32:25;;;;;;;17.00;3.60;;;;;;;-144.73;100.00;54580.13;5094262;28;20043;-75
2023/10/05 04:34:50;;;;;;;18.60;3.75;;;;;;;-144.73;100.00;54559.59;5094017;28;20038;-73
2023/10/05 04:37:16;;;;;;;18.95;3.70;;;;;;;-144.73;100.00;54567.81;5112158;28;20020;-75
2023/10/05 04:39:43;;;;;;;36.55;5.25;;;;;;;-144.73;100.00;54573.97;5111277;28;20040;-75
2023/10/05 04:42:11;;;;;;;29.63;4.88;;;;;;;-144.73;100.00;54551.38;5093674;28;20028;-75
2023/10/05 04:44:41;;;;;;;24.33;4.70;;;;;;;-144.73;100.00;54559.59;5092081;28;20050;-76
2023/10/05 04:47:09;;;;;;;19.45;4.28;;;;;;;-144.73;100.00;54588.31;5097424;28;20036;-75
2023/10/05 04:49:37;;;;;;;18.70;4.40;;;;;;;-144.73;100.00;54580.13;5109784;28;20040;-76
2023/10/05 04:52:06;;;;;;;23.80;5.15;;;;;;;-144.73;100.00;54588.31;5116444;28;20073;-76
2023/10/05 04:54:36;;;;;;;31.10;5.28;;;;;;;-144.73;100.00;54506.22;5097003;28;20055;-75
2023/10/05 04:57:12;;;;;;;23.90;4.38;;;;;;;-144.73;100.00;54592.44;5097251;28;20016;-76
2023/10/05 04:59:48;;;;;;;24.83;5.00;;;;;;;-144.73;100.00;54565.75;5095724;28;20031;-75
2023/10/05 05:02:35;;;;;;;25.52;4.90;;;;;;;-144.73;100.00;54588.31;5097748;28;20024;-75
2023/10/05 05:05:21;;;;;;;15.88;4.28;;;;;;;-144.73;100.00;54565.75;5112666;27;20036;-76
2023/10/05 05:07:46;;;;;;;18.38;4.65;;;;;;;-144.73;100.00;54547.28;5108342;28;20027;-76
2023/10/05 05:10:12;;;;;;;23.30;4.18;;;;;;;-144.73;100.00;54547.28;5115339;28;20118;-76
2023/10/05 05:12:38;;;;;;;24.55;6.13;;;;;;;-144.73;100.00;54567.81;5095533;28;20020;-75
2023/10/05 05:15:05;;;;;;;21.75;4.22;;;;;;;-144.73;100.00;54563.69;5112991;28;20012;-75
2023/10/05 05:17:32;;;;;;;17.38;5.00;;;;;;;-144.73;100.00;54514.44;5095436;28;20032;-77
2023/10/05 05:19:58;;;;;;;28.13;6.40;;;;;;;-144.73;100.00;54569.84;5095380;28;20114;-75
2023/10/05 05:22:24;;;;;;;18.95;4.63;;;;;;;-144.73;100.00;54555.47;5095983;28;20107;-76
2023/10/05 05:24:50;;;;;;;31.75;5.35;;;;;;;-144.73;100.00;54543.16;5112734;28;20024;-76
2023/10/05 05:29:53;;;;;;;24.80;5.45;;;;;;;-144.73;100.00;54506.22;5113288;28;20056;-75
2023/10/05 05:32:19;;;;;;;20.48;4.50;;;;;;;-144.73;100.00;54588.31;5094228;28;20052;-76
2023/10/05 05:34:46;;;;;;;27.45;4.97;;;;;;;-144.73;100.00;54582.16;5114032;28;20569;-74
2023/10/05 05:37:28;;;;;;;32.55;5.60;;;;;;;-144.73;100.00;54567.81;5102266;28;20363;-75
2023/10/05 05:39:55;;;;;;;30.25;4.80;;;;;;;-144.73;100.00;54565.75;5095309;28;20024;-75
2023/10/05 05:42:22;;;;;;;25.75;5.97;;;;;;;-144.73;100.00;54600.63;5113912;28;20032;-75
2023/10/05 05:44:48;;;;;;;33.25;5.65;;;;;;;-144.73;100.00;54576.00;5095075;28;20031;-75
2023/10/05 05:47:14;;;;;;;18.10;4.93;;;;;;;-144.73;100.00;54561.63;5098288;28;20015;-75
2023/10/05 05:49:40;;;;;;;27.23;5.30;;;;;;;-144.73;100.00;54555.47;5111352;28;20050;-75
2023/10/05 05:52:08;;;;;;;22.80;4.30;;;;;;;-144.73;100.00;54547.28;5095752;28;20012;-76
2023/10/05 05:54:37;;;;;;;37.38;5.90;;;;;;;-144.73;100.00;54571.91;5099160;28;20027;-75
2023/10/05 05:57:11;;;;;;;21.85;4.50;;;;;;;-144.73;100.00;54563.69;5095366;28;20016;-76
2023/10/05 05:59:47;;;;;;;22.60;5.43;;;;;;;-144.73;100.00;54578.06;5095157;28;20035;-76
2023/10/05 06:02:12;;;;;;;38.08;5.03;;;;;;;-144.73;100.00;54590.38;5095564;28;20019;-76
2023/10/05 06:04:41;;;;;;;23.55;4.95;;;;;;;-144.73;100.00;54555.47;5095546;28;20084;-77
2023/10/05 06:07:11;;;;;;;21.25;5.25;;;;;;;-144.73;100.00;54592.44;5100351;28;20555;-77
2023/10/05 06:09:48;;;;;;;28.70;5.05;;;;;;;-144.73;100.00;54547.28;5089766;28;20097;-77
2023/10/05 06:12:17;;;;;;;19.60;5.35;;;;;;;-144.73;100.00;54543.16;5112153;28;20022;-77
2023/10/05 06:14:42;;;;;;;32.78;6.13;;;;;;;-144.73;100.00;54551.38;5095332;28;20106;-77
2023/10/05 06:17:08;;;;;;;25.27;5.60;;;;;;;-144.73;100.00;54584.22;5096252;28;20546;-75
2023/10/05 06:19:36;;;;;;;32.55;5.80;;;;;;;-144.73;100.00;54567.81;5094058;28;20032;-74
2023/10/05 06:22:03;;;;;;;31.33;5.60;;;;;;;-144.73;100.00;54594.47;5112309;28;20023;-75
2023/10/05 06:24:29;;;;;;;33.35;5.57;;;;;;;-144.73;100.00;54588.31;5094554;28;20030;-73
2023/10/05 06:26:55;;;;;;;27.17;5.38;;;;;;;-144.73;100.00;54582.16;5091409;28;20011;-73
2023/10/05 06:29:20;;;;;;;39.38;8.25;;;;;;;-144.73;100.00;54549.31;5092150;28;20036;-75
2023/10/05 06:31:46;;;;;;;26.73;6.25;;;;;;;-144.73;100.00;54580.13;5111408;28;20013;-75
2023/10/05 06:34:11;;;;;;;31.13;6.88;;;;;;;-144.73;100.00;54619.13;5093874;28;20372;-74
2023/10/05 06:36:38;;;;;;;31.35;5.82;;;;;;;-144.73;100.00;54592.44;5094371;28;20023;-74
2023/10/05 06:39:06;;;;;;;30.42;5.72;;;;;;;-144.73;100.00;54596.53;5093026;28;20048;-74
2023/10/05 06:41:36;;;;;;;28.38;5.57;;;;;;;-144.73;100.00;54571.91;5093675;28;20028;-74
2023/10/05 06:44:03;;;;;;;26.95;5.72;;;;;;;-144.73;100.00;54565.75;5095325;28;20027;-73
2023/10/05 06:46:29;;;;;;;38.08;6.75;;;;;;;-144.73;100.00;54576.00;5094270;28;20050;-73
2023/10/05 06:48:55;;;;;;;25.48;5.68;;;;;;;-144.73;100.00;54571.91;5093646;28;20113;-73
2023/10/05 06:51:27;;;;;;;23.23;5.70;;;;;;;-144.73;100.00;54584.22;5094038;28;20058;-73
2023/10/05 06:53:53;;;;;;;37.20;5.93;;;;;;;-144.73;100.00;54580.13;5111238;28;20052;-73
2023/10/05 06:56:22;;;;;;;38.88;6.20;;;;;;;-144.73;100.00;54588.31;5093050;28;20031;-73
2023/10/05 06:58:48;;;;;;;40.13;7.40;;;;;;;-144.73;100.00;54576.00;5089438;28;20406;-72
2023/10/05 07:01:14;;;;;;;29.48;7.00;;;;;;;-144.73;100.00;54584.22;5089117;28;20042;-72
2023/10/05 07:03:42;;;;;;;29.48;7.97;;;;;;;-144.73;100.00;54576.00;5107986;28;20069;-72
2023/10/05 07:06:08;;;;;;;30.30;7.53;;;;;;;-144.73;100.00;54580.13;5089090;28;20118;-72
2023/10/05 07:08:33;;;;;;;31.90;7.78;;;;;;;-144.73;100.00;54641.69;5098154;28;20188;-72
2023/10/05 07:10:59;;;;;;;42.97;9.88;;;;;;;-144.73;100.00;54588.31;5091640;28;20027;-71
2023/10/05 07:13:28;;;;;;;37.30;10.02;;;;;;;-144.73;100.00;54604.75;5110187;28;20042;-71
2023/10/05 07:15:55;;;;;;;26.77;8.98;;;;;;;-144.73;100.00;54588.31;5109734;28;20031;-72
2023/10/05 07:18:21;;;;;;;30.67;8.32;;;;;;;-144.73;100.00;54596.53;5089497;28;20043;-72
2023/10/05 07:20:48;;;;;;;29.20;9.02;;;;;;;-144.73;100.00;54571.91;5091637;28;20012;-73
2023/10/05 07:23:13;;;;;;;22.42;7.18;;;;;;;-144.73;100.00;54563.69;5090300;28;20046;-71
2023/10/05 07:25:41;;;;;;;23.80;6.43;;;;;;;-144.73;100.00;54576.00;5092901;28;20015;-72
2023/10/05 07:28:14;;;;;;;16.70;5.18;;;;;;;-144.73;100.00;54573.97;5109630;28;20027;-72
2023/10/05 07:30:41;;;;;;;10.68;4.60;;;;;;;-144.73;100.00;54588.31;5089741;28;20105;-72
2023/10/05 07:33:07;;;;;;;16.60;4.78;;;;;;;-144.73;100.00;54592.44;5109527;28;20035;-71
2023/10/05 07:35:32;;;;;;;16.42;5.38;;;;;;;-144.73;100.00;54576.00;5092682;28;20373;-71
2023/10/05 07:37:59;;;;;;;14.70;5.07;;;;;;;-144.73;100.00;54584.22;5088772;28;20024;-74
2023/10/05 07:40:25;;;;;;;17.85;4.15;;;;;;;-144.73;100.00;54576.00;5099523;28;20024;-74
2023/10/05 07:42:51;;;;;;;13.30;4.57;;;;;;;-144.73;100.00;54573.97;5110045;28;20051;-74
2023/10/05 07:45:16;;;;;;;14.93;4.18;;;;;;;-144.73;100.00;54567.81;5091815;28;20023;-72
2023/10/05 07:47:43;;;;;;;10.40;3.63;;;;;;;-144.73;100.00;54565.75;5090931;28;20043;-72
2023/10/05 07:50:13;;;;;;;13.13;4.50;;;;;;;-144.73;100.00;54584.22;5109510;28;20027;-72
2023/10/05 07:52:39;;;;;;;14.50;3.88;;;;;;;-144.73;100.00;54580.13;5108187;28;20108;-72
2023/10/05 07:55:06;;;;;;;19.00;4.32;;;;;;;-144.73;100.00;54559.59;5110410;28;20027;-72
2023/10/05 07:57:31;;;;;;;7.68;2.95;;;;;;;-144.73;100.00;54608.84;5108882;28;20114;-71
2023/10/05 07:59:57;;;;;;;10.15;3.38;;;;;;;-144.73;100.00;54588.31;5108759;28;20422;-73
2023/10/05 08:02:22;;;;;;;11.07;2.95;;;;;;;-144.73;100.00;54596.53;5091252;28;20023;-71
2023/10/05 08:04:48;;;;;;;9.20;3.38;;;;;;;-144.73;100.00;54590.38;5110231;28;20035;-72
2023/10/05 08:07:15;;;;;;;13.95;3.85;;;;;;;-144.73;100.00;54584.22;5091256;28;20031;-71
2023/10/05 08:09:42;;;;;;;11.65;3.25;;;;;;;-144.73;100.00;54576.00;5110213;28;20032;-73
2023/10/05 08:12:09;;;;;;;11.18;3.35;;;;;;;-144.73;100.00;54580.13;5091659;28;20034;-73
2023/10/05 08:14:36;;;;;;;11.85;2.50;;;;;;;-144.73;100.00;54580.13;5083375;28;20036;-72
2023/10/05 08:17:03;;;;;;;10.95;2.17;;;;;;;-144.73;100.00;54598.59;5096060;28;20033;-74
2023/10/05 08:19:29;;;;;;;7.20;2.38;;;;;;;-144.73;100.00;54584.22;5095646;28;20028;-71
2023/10/05 08:21:55;;;;;;;7.47;2.25;;;;;;;-144.73;100.00;54588.31;5095685;28;20068;-72
2023/10/05 08:24:24;;;;;;;10.63;3.13;;;;;;;-144.73;100.00;54592.44;5096239;28;20537;-72
2023/10/05 08:26:52;;;;;;;8.75;3.25;;;;;;;-144.73;100.00;54576.00;5113842;28;20027;-74
2023/10/05 08:29:22;;;;;;;7.82;2.38;;;;;;;-144.73;100.00;54559.59;5100150;28;20039;-72
2023/10/05 08:31:50;;;;;;;5.75;2.35;;;;;;;-144.73;100.00;54596.53;5107008;28;20011;-72
2023/10/05 08:34:20;;;;;;;9.07;3.00;;;;;;;-144.73;100.00;54612.97;5094148;28;20759;-72
2023/10/05 08:36:54;;;;;;;11.02;3.80;;;;;;;-144.73;100.00;54596.53;5113512;28;20016;-71
2023/10/05 08:39:26;;;;;;;6.47;2.20;;;;;;;-144.73;100.00;54576.00;5092779;28;20032;-71
2023/10/05 08:42:06;;;;;;;5.95;2.40;;;;;;;-144.73;100.00;54604.75;5096285;28;20032;-73
2023/10/05 08:44:38;;;;;;;4.85;2.78;;;;;;;-144.73;100.00;54563.69;5093419;28;20035;-71
2023/10/05 08:47:16;;;;;;;6.13;2.20;;;;;;;-144.73;100.00;54592.44;5096944;27;20098;-71
2023/10/05 08:49:45;;;;;;;6.15;2.63;;;;;;;-144.73;100.00;54596.53;5108052;28;20039;-71
2023/10/05 08:52:19;;;;;;;7.55;1.88;;;;;;;-144.73;100.00;54594.47;5112166;28;20031;-72
2023/10/05 08:54:46;;;;;;;5.30;2.08;;;;;;;-144.73;100.00;54596.53;5105668;28;20023;-71
2023/10/05 08:57:13;;;;;;;14.60;2.83;;;;;;;-144.73;100.00;54563.69;5095400;28;20089;-71
2023/10/05 08:59:39;;;;;;;4.45;1.90;;;;;;;-144.73;100.00;54588.31;5112891;28;20028;-71
2023/10/05 09:02:08;;;;;;;6.07;2.28;;;;;;;-144.73;100.00;54539.06;5113288;28;20016;-70
2023/10/05 09:04:47;;;;;;;9.88;2.30;;;;;;;-144.73;100.00;54563.69;5096133;28;20073;-72
2023/10/05 09:07:27;;;;;;;6.70;1.73;;;;;;;-144.73;100.00;54588.31;5112427;28;20023;-73
2023/10/05 09:09:56;;;;;;;3.53;1.83;;;;;;;-144.73;100.00;54580.13;5112467;28;20093;-72
2023/10/05 09:12:35;;;;;;;7.93;2.15;;;;;;;-144.73;100.00;54567.81;5112008;28;20016;-72
2023/10/05 09:18:05;;;;;;;14.10;2.65;;;;;;;-144.73;100.00;54551.38;5111691;28;20084;-73
2023/10/05 09:20:38;;;;;;;7.50;1.92;;;;;;;-144.73;100.00;54559.59;5094455;28;20011;-73
2023/10/05 09:23:11;;;;;;;6.32;2.35;;;;;;;-144.73;100.00;54576.00;5090048;28;20036;-73
2023/10/05 09:25:38;;;;;;;9.70;1.95;;;;;;;-144.73;100.00;54580.13;5094802;28;20045;-73
2023/10/05 09:28:14;;;;;;;9.55;2.33;;;;;;;-144.73;100.00;54571.91;5108595;28;20024;-72
2023/10/05 09:30:59;;;;;;;8.52;2.08;;;;;;;-144.73;100.00;54588.31;5093162;28;20092;-74
2023/10/05 09:33:27;;;;;;;12.43;2.53;;;;;;;-144.73;100.00;54571.91;5094216;28;20028;-73
2023/10/05 09:36:01;;;;;;;10.15;2.10;;;;;;;-144.73;100.00;54584.22;5093983;28;20041;-73
2023/10/05 09:38:30;;;;;;;9.10;2.85;;;;;;;-144.73;100.00;54539.06;5093401;28;20140;-73
2023/10/05 09:40:58;;;;;;;7.88;2.30;;;;;;;-144.73;100.00;54563.69;5093702;28;20022;-73
2023/10/05 09:43:30;;;;;;;7.97;1.70;;;;;;;-144.73;100.00;54592.44;5105235;28;20113;-74
2023/10/05 09:45:57;;;;;;;8.15;2.17;;;;;;;-144.73;100.00;54563.69;5095101;28;20015;-74
2023/10/05 09:48:24;;;;;;;12.02;2.47;;;;;;;-144.73;100.00;54578.06;5086915;28;20031;-74
2023/10/05 09:50:54;;;;;;;7.38;1.73;;;;;;;-144.73;100.00;54555.47;5094126;28;20023;-73
2023/10/05 09:53:22;;;;;;;7.03;2.05;;;;;;;-144.73;100.00;54555.47;5093350;28;20047;-73
2023/10/05 09:55:59;;;;;;;9.30;1.88;;;;;;;-144.73;100.00;54567.81;5094234;28;20019;-73
2023/10/05 09:58:25;;;;;;;13.30;1.98;;;;;;;-144.73;100.00;54563.69;5091804;28;20048;-73
2023/10/05 10:00:55;;;;;;;8.05;1.67;;;;;;;-144.73;100.00;54576.00;5089037;28;20062;-73
2023/10/05 10:03:21;;;;;;;8.00;1.95;;;;;;;-144.73;100.00;54584.22;5109438;28;20061;-73
2023/10/05 10:06:08;;;;;;;10.35;2.08;;;;;;;-144.73;100.00;54547.28;5110717;28;20054;-73
2023/10/05 10:08:42;;;;;;;11.88;2.22;;;;;;;-144.73;100.00;54580.13;5093163;28;20039;-73
2023/10/05 10:11:19;;;;;;;7.45;2.05;;;;;;;-144.73;100.00;54518.53;5094252;28;20059;-74
2023/10/05 10:14:00;;;;;;;10.77;2.97;;;;;;;-144.73;100.00;54576.00;5104053;28;20071;-73
2023/10/05 10:16:27;;;;;;;10.70;2.75;;;;;;;-144.73;100.00;54576.00;5094527;28;20016;-75
2023/10/05 10:19:04;;;;;;;8.93;1.98;;;;;;;-144.73;100.00;54584.22;5111367;28;20028;-74
2023/10/05 10:21:35;;;;;;;8.90;1.98;;;;;;;-144.73;100.00;54524.69;5092025;28;20020;-73
2023/10/05 10:24:04;;;;;;;13.48;2.33;;;;;;;-144.73;100.00;54578.06;5094302;28;20028;-75
2023/10/05 10:26:30;;;;;;;16.60;2.63;;;;;;;-144.73;100.00;54551.38;5110330;28;20023;-74
2023/10/05 10:31:33;;;;;;;11.43;2.13;;;;;;;-144.73;100.00;54563.69;5104428;28;20035;-75
2023/10/05 10:34:18;;;;;;;21.17;2.92;;;;;;;-144.73;100.00;54563.69;5094153;28;20024;-74
2023/10/05 10:36:51;;;;;;;16.30;2.70;;;;;;;-144.73;100.00;54528.81;5106515;28;20024;-73
2023/10/05 10:39:23;;;;;;;13.05;2.25;;;;;;;-144.73;100.00;54555.47;5093219;28;20069;-74
2023/10/05 10:42:30;;;;;;;14.48;2.25;;;;;;;-144.73;100.00;54551.38;5093493;28;20027;-76
2023/10/05 10:47:22;;;;;;;15.18;2.97;;;;;;;-144.73;100.00;54569.84;5101349;28;20020;-74
2023/10/05 10:50:11;;;;;;;16.10;2.75;;;;;;;-144.73;100.00;54530.84;5085032;28;20024;-76
2023/10/05 10:52:36;;;;;;;21.27;2.97;;;;;;;-144.73;100.00;54580.13;5106789;28;20058;-75
2023/10/05 10:55:03;;;;;;;14.00;2.70;;;;;;;-144.73;100.00;54551.38;5094145;28;20015;-76
2023/10/05 10:57:29;;;;;;;17.60;2.35;;;;;;;-144.73;100.00;54571.91;5092699;28;20023;-76
2023/10/05 11:00:38;;;;;;;15.82;2.47;;;;;;;-144.73;100.00;54565.75;5109760;28;20043;-77
2023/10/05 11:02:40;;;;;;;15.80;2.45;;;;;;;-144.73;100.00;54547.28;5110229;28;20065;-76
2023/10/05 11:05:14;;;;;;;16.85;2.80;;;;;;;-144.73;100.00;54539.06;5109138;28;20019;-75
2023/10/05 11:07:41;;;;;;;17.33;3.17;;;;;;;-144.73;100.00;54514.44;5108412;28;20115;-76
2023/10/05 11:10:18;;;;;;;15.55;3.15;;;;;;;-144.73;100.00;54522.63;5109330;28;20011;-75
2023/10/05 11:12:54;;;;;;;23.25;2.97;;;;;;;-144.73;100.00;54539.06;5092257;28;20030;-76
2023/10/05 11:15:28;;;;;;;21.05;3.45;;;;;;;-144.73;100.00;54547.28;5110795;28;20027;-76
2023/10/05 11:17:58;;;;;;;17.73;3.65;;;;;;;-144.73;100.00;54547.28;5093617;28;20035;-76
2023/10/05 11:20:33;;;;;;;17.27;3.35;;;;;;;-144.73;100.00;54524.69;5110405;28;20493;-76
2023/10/05 11:23:03;;;;;;;18.90;2.83;;;;;;;-144.73;100.00;54567.81;5090521;28;20106;-76
2023/10/05 11:25:32;;;;;;;15.75;3.05;;;;;;;-144.73;100.00;54526.75;5088610;28;20098;-76
2023/10/05 11:27:59;;;;;;;16.10;3.08;;;;;;;-144.73;100.00;54514.44;5096024;28;20032;-76
2023/10/05 11:30:33;;;;;;;13.93;3.15;;;;;;;-144.73;100.00;54571.91;5094933;28;20023;-76
2023/10/05 11:33:05;;;;;;;13.45;2.47;;;;;;;-144.73;100.00;54555.47;5093119;28;20054;-77
2023/10/05 11:35:42;;;;;;;21.67;3.45;;;;;;;-144.73;100.00;54498.00;5087282;28;20503;-77
2023/10/05 11:38:14;;;;;;;16.35;3.22;;;;;;;-144.73;100.00;54522.63;5090622;28;20027;-77
2023/10/05 11:40:49;;;;;;;18.02;3.80;;;;;;;-144.73;100.00;54539.06;5091172;28;20023;-76